createdAt,value
2019-05-13T00:00:07.695Z,9.80
2019-05-13T00:02:43.646Z,9.80
2019-05-13T00:05:16.115Z,9.80
2019-05-13T00:07:49.150Z,9.80
2019-05-13T00:10:24.286Z,9.70
2019-05-13T00:12:55.661Z,9.70
2019-05-13T00:15:29.370Z,9.70
2019-05-13T00:18:00.947Z,9.80
2019-05-13T00:20:34.368Z,9.70
2019-05-13T00:23:07.368Z,9.70
2019-05-13T00:25:40.361Z,9.60
2019-05-13T00:28:14.666Z,9.60
2019-05-13T00:30:47.862Z,9.60
2019-05-13T00:33:20.853Z,9.60
2019-05-13T00:35:53.582Z,9.70
2019-05-13T00:38:24.997Z,9.60
2019-05-13T00:40:56.388Z,9.60
2019-05-13T00:43:29.201Z,9.50
2019-05-13T00:46:00.627Z,9.50
2019-05-13T00:48:33.469Z,9.50
2019-05-13T00:51:05.093Z,9.50
2019-05-13T00:53:37.502Z,9.50
2019-05-13T00:56:09.053Z,9.40
2019-05-13T00:58:40.625Z,9.40
2019-05-13T01:01:14.025Z,9.40
2019-05-13T01:03:46.027Z,9.40
2019-05-13T01:06:18.132Z,9.30
2019-05-13T01:08:49.510Z,9.30
2019-05-13T01:11:20.876Z,9.30
2019-05-13T01:13:53.554Z,9.30
2019-05-13T01:16:26.162Z,9.30
2019-05-13T01:18:58.314Z,9.30
2019-05-13T01:21:30.238Z,9.30
2019-05-13T01:24:03.784Z,9.20
2019-05-13T01:26:36.600Z,9.20
2019-05-13T01:29:09.060Z,9.20
2019-05-13T01:31:43.336Z,9.20
2019-05-13T01:34:17.655Z,9.20
2019-05-13T01:36:50.185Z,9.20
2019-05-13T01:39:24.196Z,9.30
2019-05-13T01:41:56.120Z,9.20
2019-05-13T01:44:27.976Z,9.20
2019-05-13T01:47:00.492Z,9.10
2019-05-13T01:49:33.679Z,9.10
2019-05-13T01:52:05.223Z,9.10
2019-05-13T01:54:36.491Z,9.10
2019-05-13T01:57:08.790Z,9.10
2019-05-13T01:59:40.299Z,9.00
2019-05-13T02:02:13.734Z,9.00
2019-05-13T02:04:45.861Z,8.90
2019-05-13T02:07:17.490Z,8.90
2019-05-13T02:09:49.048Z,9.10
2019-05-13T02:12:20.897Z,9.10
2019-05-13T02:14:53.390Z,9.00
2019-05-13T02:17:24.995Z,9.00
2019-05-13T02:19:56.566Z,9.10
2019-05-13T02:22:28.113Z,9.00
2019-05-13T02:24:59.504Z,9.10
2019-05-13T02:27:31.502Z,9.10
2019-05-13T02:30:05.601Z,9.10
2019-05-13T02:32:37.929Z,9.00
2019-05-13T02:35:13.484Z,9.10
2019-05-13T02:37:43.545Z,9.10
2019-05-13T02:40:15.167Z,9.00
2019-05-13T02:42:47.908Z,9.00
2019-05-13T02:45:22.511Z,9.00
2019-05-13T02:47:52.772Z,9.00
2019-05-13T02:50:24.021Z,9.10
2019-05-13T02:52:56.424Z,9.10
2019-05-13T02:55:27.820Z,9.00
2019-05-13T02:57:59.293Z,9.00
2019-05-13T03:00:32.907Z,9.00
2019-05-13T03:03:03.715Z,9.00
2019-05-13T03:05:35.111Z,9.10
2019-05-13T03:08:06.478Z,9.00
2019-05-13T03:10:38.123Z,9.00
2019-05-13T03:13:12.653Z,8.90
2019-05-13T03:16:13.194Z,8.80
2019-05-13T03:18:44.480Z,8.90
2019-05-13T03:21:16.721Z,9.00
2019-05-13T03:23:52.261Z,8.90
2019-05-13T03:26:23.521Z,9.00
2019-05-13T03:28:55.563Z,9.00
2019-05-13T03:31:27.162Z,9.00
2019-05-13T03:33:58.501Z,8.90
2019-05-13T03:36:35.738Z,8.90
2019-05-13T03:39:09.693Z,8.90
2019-05-13T03:41:42.377Z,8.90
2019-05-13T03:44:13.927Z,8.90
2019-05-13T03:46:48.225Z,8.90
2019-05-13T03:49:23.232Z,8.90
2019-05-13T03:51:57.898Z,8.90
2019-05-13T03:54:32.775Z,8.90
2019-05-13T03:57:03.894Z,9.10
2019-05-13T03:59:35.979Z,9.10
2019-05-13T04:02:07.804Z,9.30
2019-05-13T04:04:42.123Z,9.30
2019-05-13T04:07:14.971Z,9.40
2019-05-13T04:09:46.557Z,9.50
2019-05-13T04:12:22.780Z,9.50
2019-05-13T04:14:54.047Z,9.50
2019-05-13T04:17:26.265Z,9.50
2019-05-13T04:20:02.866Z,9.60
2019-05-13T04:22:34.473Z,9.60
2019-05-13T04:25:06.563Z,9.50
2019-05-13T04:27:38.142Z,9.40
2019-05-13T04:30:13.608Z,9.50
2019-05-13T04:32:45.420Z,9.50
2019-05-13T04:35:16.956Z,9.60
2019-05-13T04:37:48.591Z,9.70
2019-05-13T04:40:23.033Z,9.50
2019-05-13T04:42:54.241Z,9.70
2019-05-13T04:45:26.471Z,9.70
2019-05-13T04:47:57.948Z,10.20
2019-05-13T04:50:32.909Z,10.80
2019-05-13T04:53:03.517Z,11.20
2019-05-13T04:55:34.885Z,11.50
2019-05-13T04:58:06.299Z,11.10
2019-05-13T05:01:04.803Z,10.90
2019-05-13T05:03:46.127Z,10.80
2019-05-13T05:06:35.331Z,10.80
2019-05-13T05:09:18.591Z,10.30
2019-05-13T05:12:46.708Z,10.20
2019-05-13T05:15:52.601Z,10.00
2019-05-13T05:19:01.784Z,10.10
2019-05-13T05:21:38.177Z,10.20
2019-05-13T05:24:47.144Z,10.40
2019-05-13T05:27:57.923Z,10.80
2019-05-13T05:31:11.859Z,11.00
2019-05-13T05:34:11.555Z,11.10
2019-05-13T05:37:24.745Z,10.80
2019-05-13T05:40:01.942Z,11.20
2019-05-13T05:42:37.669Z,11.80
2019-05-13T05:45:11.568Z,11.80
2019-05-13T05:47:46.059Z,12.00
2019-05-13T05:50:17.702Z,12.80
2019-05-13T05:52:51.343Z,13.40
2019-05-13T05:55:25.606Z,13.80
2019-05-13T05:57:58.868Z,13.50
2019-05-13T06:00:32.386Z,12.70
2019-05-13T06:03:05.264Z,12.20
2019-05-13T06:05:37.223Z,11.70
2019-05-13T06:08:08.680Z,11.50
2019-05-13T06:10:49.059Z,12.10
2019-05-13T06:13:14.576Z,12.00
2019-05-13T06:15:46.216Z,12.30
2019-05-13T06:18:18.388Z,12.50
2019-05-13T06:20:51.207Z,11.80
2019-05-13T06:23:23.069Z,11.70
2019-05-13T06:25:54.484Z,11.90
2019-05-13T06:28:26.156Z,11.70
2019-05-13T06:31:02.529Z,11.90
2019-05-13T06:33:34.915Z,12.00
2019-05-13T06:36:07.819Z,11.90
2019-05-13T06:38:42.443Z,12.30
2019-05-13T06:41:14.896Z,12.00
2019-05-13T06:43:46.351Z,12.20
2019-05-13T06:46:18.627Z,11.90
2019-05-13T06:48:52.123Z,11.60
2019-05-13T06:51:23.738Z,11.60
2019-05-13T06:53:55.870Z,11.80
2019-05-13T06:56:27.271Z,11.30
2019-05-13T06:59:01.443Z,11.40
2019-05-13T07:01:32.899Z,11.80
2019-05-13T07:04:04.527Z,12.00
2019-05-13T07:06:35.936Z,12.10
2019-05-13T07:09:07.910Z,11.70
2019-05-13T07:11:41.475Z,12.00
2019-05-13T07:14:13.273Z,12.10
2019-05-13T07:16:44.842Z,11.90
2019-05-13T07:19:17.630Z,11.60
2019-05-13T07:21:49.101Z,11.70
2019-05-13T07:24:21.510Z,12.10
2019-05-13T07:26:53.415Z,12.50
2019-05-13T07:29:24.960Z,12.60
2019-05-13T07:31:57.179Z,12.80
2019-05-13T07:34:28.760Z,12.30
2019-05-13T07:37:02.065Z,12.00
2019-05-13T07:39:34.215Z,12.20
2019-05-13T07:42:06.103Z,12.10
2019-05-13T07:44:37.635Z,12.10
2019-05-13T07:47:11.399Z,12.20
2019-05-13T07:49:42.788Z,12.00
2019-05-13T07:52:15.071Z,11.90
2019-05-13T07:54:47.004Z,12.10
2019-05-13T07:57:18.566Z,12.10
2019-05-13T07:59:52.438Z,12.50
2019-05-13T08:02:25.179Z,12.20
2019-05-13T08:04:56.809Z,11.90
2019-05-13T08:07:28.235Z,11.80
2019-05-13T08:10:03.579Z,11.60
2019-05-13T08:12:35.221Z,12.10
2019-05-13T08:15:08.747Z,12.20
2019-05-13T08:17:47.233Z,12.40
2019-05-13T08:20:16.180Z,12.10
2019-05-13T08:22:47.934Z,11.90
2019-05-13T08:25:19.490Z,11.80
2019-05-13T08:27:51.454Z,11.60
2019-05-13T08:30:24.300Z,11.80
2019-05-13T08:32:56.892Z,11.90
2019-05-13T08:35:28.556Z,12.30
2019-05-13T08:38:01.430Z,12.00
2019-05-13T08:40:34.096Z,12.10
2019-05-13T08:43:06.876Z,12.50
2019-05-13T08:45:42.115Z,12.50
2019-05-13T08:48:13.762Z,12.20
2019-05-13T08:50:45.244Z,12.40
2019-05-13T08:53:17.299Z,12.40
2019-05-13T08:55:51.562Z,12.10
2019-05-13T08:58:22.873Z,12.30
2019-05-13T09:00:59.156Z,12.60
2019-05-13T09:03:32.736Z,12.70
2019-05-13T09:06:06.120Z,12.70
2019-05-13T09:08:41.788Z,12.70
2019-05-13T09:11:13.427Z,12.70
2019-05-13T09:13:44.839Z,12.20
2019-05-13T09:16:16.782Z,12.10
2019-05-13T09:18:48.502Z,12.20
2019-05-13T09:21:22.525Z,12.40
2019-05-13T09:23:54.455Z,12.70
2019-05-13T09:26:26.740Z,12.70
2019-05-13T09:28:58.388Z,12.30
2019-05-13T09:31:32.213Z,12.20
2019-05-13T09:34:03.832Z,12.70
2019-05-13T09:36:35.693Z,12.60
2019-05-13T09:39:08.720Z,13.00
2019-05-13T09:41:41.970Z,12.70
2019-05-13T09:44:13.324Z,12.90
2019-05-13T09:46:46.165Z,12.80
2019-05-13T09:49:20.025Z,12.90
2019-05-13T09:51:52.400Z,12.70
2019-05-13T09:54:24.909Z,12.70
2019-05-13T09:56:57.248Z,12.80
2019-05-13T09:59:31.521Z,12.60
2019-05-13T10:02:03.394Z,12.30
2019-05-13T10:04:36.052Z,12.30
2019-05-13T10:07:08.006Z,12.50
2019-05-13T10:09:39.446Z,12.70
2019-05-13T10:12:12.567Z,12.60
2019-05-13T10:14:45.026Z,12.80
2019-05-13T10:17:17.819Z,12.90
2019-05-13T10:19:51.861Z,12.70
2019-05-13T10:22:23.916Z,13.10
2019-05-13T10:24:55.911Z,13.30
2019-05-13T10:27:28.731Z,13.10
2019-05-13T10:30:00.715Z,12.80
2019-05-13T10:32:32.799Z,13.00
2019-05-13T10:35:06.152Z,13.20
2019-05-13T10:37:37.914Z,13.10
2019-05-13T10:40:11.591Z,13.10
2019-05-13T10:42:43.611Z,12.70
2019-05-13T10:45:15.315Z,12.70
2019-05-13T10:47:46.833Z,12.80
2019-05-13T10:50:18.539Z,13.30
2019-05-13T10:52:52.252Z,13.30
2019-05-13T10:55:24.688Z,13.20
2019-05-13T10:57:56.512Z,13.00
2019-05-13T11:00:53.866Z,12.90
2019-05-13T11:03:25.536Z,12.90
2019-05-13T11:05:57.442Z,12.70
2019-05-13T11:08:29.050Z,12.30
2019-05-13T11:11:02.175Z,12.10
2019-05-13T11:13:50.554Z,12.00
2019-05-13T11:16:08.197Z,12.30
2019-05-13T11:18:40.129Z,12.00
2019-05-13T11:21:12.934Z,12.20
2019-05-13T11:23:44.861Z,12.70
2019-05-13T11:26:16.950Z,12.70
2019-05-13T11:28:52.136Z,12.70
2019-05-13T11:31:23.863Z,12.90
2019-05-13T11:33:56.502Z,12.80
2019-05-13T11:36:28.055Z,12.70
2019-05-13T11:39:02.450Z,12.80
2019-05-13T11:41:34.660Z,13.10
2019-05-13T11:44:14.183Z,12.80
2019-05-13T11:46:42.050Z,12.70
2019-05-13T11:49:13.021Z,12.60
2019-05-13T11:51:45.097Z,12.70
2019-05-13T11:54:16.631Z,12.60
2019-05-13T11:56:50.483Z,12.70
2019-05-13T11:59:22.370Z,12.50
2019-05-13T12:01:54.194Z,12.10
2019-05-13T12:04:27.614Z,12.00
2019-05-13T12:07:03.210Z,12.20
2019-05-13T12:09:33.655Z,12.60
2019-05-13T12:12:05.173Z,12.90
2019-05-13T12:14:48.511Z,12.80
2019-05-13T12:17:14.217Z,12.10
2019-05-13T12:19:44.132Z,12.00
2019-05-13T12:22:16.042Z,12.10
2019-05-13T12:24:47.430Z,11.80
2019-05-13T12:27:19.133Z,11.60
2019-05-13T12:29:52.939Z,11.60
2019-05-13T12:32:23.977Z,11.80
2019-05-13T12:34:56.534Z,12.10
2019-05-13T12:37:28.979Z,11.90
2019-05-13T12:40:03.258Z,11.80
2019-05-13T12:42:35.355Z,11.70
2019-05-13T12:45:10.100Z,11.90
2019-05-13T12:47:43.365Z,12.10
2019-05-13T12:50:23.298Z,12.10
2019-05-13T12:52:52.872Z,12.50
2019-05-13T12:55:24.486Z,12.20
2019-05-13T12:57:56.968Z,11.80
2019-05-13T13:00:30.224Z,11.70
2019-05-13T13:03:02.798Z,11.70
2019-05-13T13:05:36.951Z,11.80
2019-05-13T13:08:19.259Z,12.30
2019-05-13T13:10:42.317Z,12.40
2019-05-13T13:13:14.826Z,12.20
2019-05-13T13:18:22.226Z,12.40
2019-05-13T13:21:00.277Z,11.70
2019-05-13T13:23:26.521Z,11.70
2019-05-13T13:25:58.612Z,11.80
2019-05-13T13:28:33.801Z,11.50
2019-05-13T13:31:04.615Z,11.80
2019-05-13T13:33:36.155Z,11.70
2019-05-13T13:36:07.624Z,11.70
2019-05-13T13:38:43.840Z,11.90
2019-05-13T13:41:22.357Z,11.70
2019-05-13T13:43:48.279Z,11.60
2019-05-13T13:46:33.894Z,11.90
2019-05-13T13:48:55.234Z,11.70
2019-05-13T13:53:59.357Z,11.40
2019-05-13T13:56:32.678Z,11.50
2019-05-13T13:59:05.427Z,11.40
2019-05-13T14:01:36.764Z,11.40
2019-05-13T14:04:08.591Z,11.50
2019-05-13T14:06:58.943Z,11.40
2019-05-13T14:07:13.475Z,12.50
2019-05-13T14:09:13.396Z,11.50
2019-05-13T14:11:44.836Z,11.50
2019-05-13T14:14:16.278Z,11.50
2019-05-13T14:16:51.622Z,11.60
2019-05-13T14:19:22.022Z,11.90
2019-05-13T14:21:54.485Z,11.70
2019-05-13T14:24:26.104Z,11.70
2019-05-13T14:26:59.076Z,11.20
2019-05-13T14:29:40.584Z,11.30
2019-05-13T14:32:05.011Z,11.40
2019-05-13T14:34:36.298Z,11.20
2019-05-13T14:37:07.895Z,11.20
2019-05-13T14:39:39.597Z,11.30
2019-05-13T14:42:11.838Z,11.20
2019-05-13T14:44:46.209Z,11.20
2019-05-13T14:47:18.497Z,11.60
2019-05-13T14:49:52.164Z,11.60
2019-05-13T14:52:22.927Z,11.50
2019-05-13T14:57:28.876Z,11.60
2019-05-13T15:00:02.378Z,11.70
2019-05-13T15:02:36.008Z,12.00
2019-05-13T15:05:11.943Z,12.10
2019-05-13T15:07:42.674Z,11.90
2019-05-13T15:10:15.411Z,11.70
2019-05-13T15:12:48.831Z,11.80
2019-05-13T15:15:22.517Z,11.50
2019-05-13T15:17:54.827Z,11.60
2019-05-13T15:20:29.416Z,11.60
2019-05-13T15:23:00.791Z,11.50
2019-05-13T15:25:32.441Z,11.40
2019-05-13T15:28:04.619Z,11.50
2019-05-13T15:30:36.062Z,11.30
2019-05-13T15:33:09.591Z,11.30
2019-05-13T15:35:42.255Z,11.10
2019-05-13T15:38:14.119Z,10.90
2019-05-13T15:41:05.283Z,10.80
2019-05-13T15:43:36.694Z,11.00
2019-05-13T15:46:08.212Z,11.00
2019-05-13T15:48:42.148Z,10.90
2019-05-13T15:51:15.330Z,11.00
2019-05-13T15:53:46.849Z,11.20
2019-05-13T15:56:18.290Z,11.30
2019-05-13T15:58:52.596Z,11.40
2019-05-13T16:01:23.706Z,11.20
2019-05-13T16:03:56.784Z,11.10
2019-05-13T16:06:28.519Z,10.90
2019-05-13T16:08:59.960Z,10.90
2019-05-13T16:11:35.345Z,10.80
2019-05-13T16:14:07.469Z,10.90
2019-05-13T16:16:41.687Z,10.70
2019-05-13T16:19:14.020Z,10.70
2019-05-13T16:21:45.992Z,10.80
2019-05-13T16:24:18.093Z,10.60
2019-05-13T16:26:52.210Z,10.50
2019-05-13T16:29:23.219Z,10.60
2019-05-13T16:31:55.504Z,10.70
2019-05-13T16:34:28.415Z,10.50
2019-05-13T16:37:01.906Z,10.40
2019-05-13T16:39:33.026Z,10.50
2019-05-13T16:42:04.559Z,10.30
2019-05-13T16:44:36.655Z,10.30
2019-05-13T16:47:08.014Z,10.30
2019-05-13T16:49:41.111Z,10.20
2019-05-13T16:52:14.322Z,10.20
2019-05-13T16:54:45.657Z,10.20
2019-05-13T16:57:17.420Z,10.30
2019-05-13T16:59:48.727Z,10.30
2019-05-13T17:02:20.953Z,10.30
2019-05-13T17:04:52.418Z,10.40
2019-05-13T17:07:24.133Z,10.30
2019-05-13T17:09:55.431Z,10.30
2019-05-13T17:12:28.103Z,10.20
2019-05-13T17:15:01.425Z,10.20
2019-05-13T17:17:32.715Z,10.10
2019-05-13T17:20:05.088Z,10.00
2019-05-13T17:22:36.703Z,10.00
2019-05-13T17:25:09.302Z,9.90
2019-05-13T17:27:41.339Z,9.70
2019-05-13T17:30:14.930Z,9.80
2019-05-13T17:32:47.096Z,9.80
2019-05-13T17:35:19.245Z,9.70
2019-05-13T17:37:51.679Z,9.80
2019-05-13T17:40:23.191Z,9.90
2019-05-13T17:42:54.783Z,9.90
2019-05-13T17:45:26.334Z,9.90
2019-05-13T17:47:57.648Z,9.80
2019-05-13T17:50:31.370Z,9.90
2019-05-13T17:53:04.571Z,9.70
2019-05-13T17:55:36.522Z,9.70
2019-05-13T17:58:11.656Z,9.60
2019-05-13T18:00:43.078Z,9.70
2019-05-13T18:03:15.004Z,9.60
2019-05-13T18:05:46.455Z,9.60
2019-05-13T18:08:17.996Z,9.60
2019-05-13T18:10:51.316Z,9.60
2019-05-13T18:13:25.595Z,9.60
2019-05-13T18:15:57.232Z,9.50
2019-05-13T18:18:40.356Z,9.40
2019-05-13T18:21:02.828Z,9.30
2019-05-13T18:23:34.179Z,9.30
2019-05-13T18:26:16.375Z,9.30
2019-05-13T18:28:47.803Z,9.10
2019-05-13T18:31:19.287Z,9.20
2019-05-13T18:33:51.172Z,9.20
2019-05-13T18:36:24.681Z,9.10
2019-05-13T18:39:01.563Z,9.10
2019-05-13T18:41:33.549Z,9.20
2019-05-13T18:44:05.241Z,9.20
2019-05-13T18:46:36.842Z,9.10
2019-05-13T18:49:08.588Z,9.10
2019-05-13T18:51:42.161Z,9.10
2019-05-13T18:54:13.161Z,8.90
2019-05-13T18:56:46.533Z,8.90
2019-05-13T18:59:18.182Z,8.80
2019-05-13T19:01:56.976Z,8.90
2019-05-13T19:04:31.343Z,8.90
2019-05-13T19:07:15.140Z,8.80
2019-05-13T19:09:55.366Z,8.70
2019-05-13T19:12:26.934Z,8.80
2019-05-13T19:15:07.367Z,8.70
2019-05-13T19:17:58.535Z,8.80
2019-05-13T19:20:23.172Z,8.70
2019-05-13T19:22:54.729Z,8.70
2019-05-13T19:25:27.529Z,8.70
2019-05-13T19:28:07.545Z,8.80
2019-05-13T19:30:48.223Z,8.80
2019-05-13T19:33:22.067Z,8.80
2019-05-13T19:35:53.852Z,8.70
2019-05-13T19:38:42.298Z,8.70
2019-05-13T19:41:31.571Z,8.60
2019-05-13T19:44:07.666Z,8.60
2019-05-13T19:46:42.304Z,8.60
2019-05-13T19:49:29.733Z,8.60
2019-05-13T19:51:56.566Z,8.60
2019-05-13T19:54:31.390Z,8.60
2019-05-13T19:57:03.100Z,8.50
2019-05-13T19:59:36.997Z,8.50
2019-05-13T20:02:12.194Z,8.50
2019-05-13T20:04:43.083Z,8.50
2019-05-13T20:07:14.724Z,8.40
2019-05-13T20:09:46.134Z,8.30
2019-05-13T20:12:21.086Z,8.30
2019-05-13T20:14:52.904Z,8.20
2019-05-13T20:17:24.972Z,8.20
2019-05-13T20:20:01.949Z,8.20
2019-05-13T20:22:32.111Z,8.20
2019-05-13T20:25:03.964Z,8.20
2019-05-13T20:27:35.821Z,8.20
2019-05-13T20:30:08.307Z,8.30
2019-05-13T20:32:39.916Z,8.20
2019-05-13T20:35:11.719Z,8.20
2019-05-13T20:37:45.848Z,8.30
2019-05-13T20:40:25.810Z,8.20
2019-05-13T20:43:07.087Z,8.30
2019-05-13T20:45:42.140Z,8.40
2019-05-13T20:48:17.561Z,8.40
2019-05-13T20:51:06.071Z,8.40
2019-05-13T20:53:46.985Z,8.30
2019-05-13T20:56:21.421Z,8.40
2019-05-13T20:58:58.880Z,8.40
2019-05-13T21:01:31.942Z,8.50
2019-05-13T21:04:04.546Z,8.60
2019-05-13T21:06:42.260Z,8.60
2019-05-13T21:09:16.778Z,8.60
2019-05-13T21:11:52.135Z,8.50
2019-05-13T21:14:27.661Z,8.50
2019-05-13T21:17:01.387Z,8.50
2019-05-13T21:19:39.569Z,8.50
2019-05-13T21:22:16.895Z,8.50
2019-05-13T21:24:51.493Z,8.60
2019-05-13T21:27:31.425Z,8.60
2019-05-13T21:30:04.331Z,8.60
2019-05-13T21:32:36.524Z,8.60
2019-05-13T21:35:13.833Z,8.70
2019-05-13T21:37:45.954Z,8.70
2019-05-13T21:40:21.698Z,8.60
2019-05-13T21:42:53.521Z,8.70
2019-05-13T21:45:24.872Z,8.80
2019-05-13T21:47:58.866Z,8.80
2019-05-13T21:50:36.916Z,8.80
2019-05-13T21:53:07.309Z,8.90
2019-05-13T21:55:38.768Z,8.80
2019-05-13T21:58:14.208Z,8.80
2019-05-13T22:00:46.671Z,8.90
2019-05-13T22:03:20.189Z,8.90
2019-05-13T22:06:02.392Z,8.90
2019-05-13T22:08:36.109Z,8.90
2019-05-13T22:11:09.026Z,8.90
2019-05-13T22:13:42.131Z,8.90
2019-05-13T22:16:15.379Z,8.90
2019-05-13T22:18:46.996Z,8.90
2019-05-13T22:21:24.350Z,8.90
2019-05-13T22:23:58.492Z,9.00
2019-05-13T22:26:31.180Z,9.00
2019-05-13T22:29:03.113Z,8.90
2019-05-13T22:31:37.853Z,8.80
2019-05-13T22:34:12.081Z,8.80
2019-05-13T22:36:43.886Z,8.90
2019-05-13T22:39:17.329Z,8.80
2019-05-13T22:41:52.377Z,8.90
2019-05-13T22:44:24.370Z,8.80
2019-05-13T22:46:59.071Z,8.90
2019-05-13T22:49:31.181Z,8.80
2019-05-13T22:52:02.833Z,8.80
2019-05-13T22:54:34.276Z,8.80
2019-05-13T22:57:11.975Z,8.90
2019-05-13T22:59:46.426Z,8.90
2019-05-13T23:02:21.788Z,8.90
2019-05-13T23:04:52.233Z,8.90
2019-05-13T23:07:25.122Z,9.00
2019-05-13T23:09:56.674Z,8.90
2019-05-13T23:12:28.193Z,8.80
2019-05-13T23:15:02.444Z,8.80
2019-05-13T23:17:34.043Z,8.80
2019-05-13T23:20:06.210Z,8.80
2019-05-13T23:22:41.485Z,8.70
2019-05-13T23:25:13.676Z,8.70
2019-05-13T23:27:46.080Z,8.60
2019-05-13T23:30:17.820Z,8.70
2019-05-13T23:32:51.584Z,8.70
2019-05-13T23:35:22.255Z,8.70
2019-05-13T23:37:53.648Z,8.70
2019-05-13T23:40:25.350Z,8.70
2019-05-13T23:42:58.419Z,8.60
2019-05-13T23:45:31.635Z,8.60
2019-05-13T23:48:06.104Z,8.70
2019-05-13T23:50:37.467Z,8.70
2019-05-13T23:53:10.541Z,8.60
2019-05-13T23:55:41.918Z,8.60
2019-05-13T23:58:13.763Z,8.60
